createdAt,value
2023-02-17T00:00:56.535Z,38.80
2023-02-17T00:03:25.519Z,38.53
2023-02-17T00:05:53.915Z,39.58
2023-02-17T00:08:22.130Z,39.17
2023-02-17T00:11:00.770Z,37.40
2023-02-17T00:13:29.087Z,38.97
2023-02-17T00:15:57.415Z,38.42
2023-02-17T00:18:25.619Z,37.22
2023-02-17T00:20:53.510Z,38.03
2023-02-17T00:23:21.814Z,39.58
2023-02-17T00:25:49.758Z,38.83
2023-02-17T00:28:19.710Z,38.88
2023-02-17T00:30:47.633Z,37.95
2023-02-17T00:33:16.014Z,37.90
2023-02-17T00:35:43.909Z,38.47
2023-02-17T00:38:12.214Z,37.67
2023-02-17T00:40:41.746Z,37.70
2023-02-17T00:43:10.015Z,39.45
2023-02-17T00:45:39.553Z,36.30
2023-02-17T00:48:07.784Z,37.08
2023-02-17T00:50:35.692Z,36.33
2023-02-17T00:53:03.969Z,34.65
2023-02-17T00:55:32.033Z,34.05
2023-02-17T00:58:00.215Z,36.10
2023-02-17T01:00:28.171Z,33.78
2023-02-17T01:02:57.885Z,32.92
2023-02-17T01:07:53.870Z,30.60
2023-02-17T01:10:21.857Z,32.38
2023-02-17T01:12:50.167Z,30.75
2023-02-17T01:15:18.153Z,32.03
2023-02-17T01:17:46.474Z,30.60
2023-02-17T01:20:16.317Z,29.52
2023-02-17T01:22:44.493Z,29.08
2023-02-17T01:25:12.649Z,30.88
2023-02-17T01:27:40.926Z,30.20
2023-02-17T01:30:09.189Z,28.58
2023-02-17T01:32:38.105Z,27.77
2023-02-17T01:35:07.044Z,27.63
2023-02-17T01:37:36.661Z,26.63
2023-02-17T01:40:05.320Z,26.08
2023-02-17T01:42:33.598Z,26.90
2023-02-17T01:45:20.080Z,22.70
2023-02-17T01:47:52.167Z,25.75
2023-02-17T01:50:22.063Z,25.10
2023-02-17T01:52:52.187Z,25.85
2023-02-17T01:55:21.208Z,26.63
2023-02-17T01:57:49.717Z,25.20
2023-02-17T02:00:18.689Z,25.42
2023-02-17T02:02:48.711Z,26.33
2023-02-17T02:05:17.224Z,24.17
2023-02-17T02:07:46.169Z,25.13
2023-02-17T02:10:18.287Z,24.65
2023-02-17T02:12:46.606Z,25.30
2023-02-17T02:15:15.619Z,23.65
2023-02-17T02:17:48.467Z,24.50
2023-02-17T02:20:31.570Z,23.25
2023-02-17T02:23:11.987Z,24.23
2023-02-17T02:25:55.027Z,25.23
2023-02-17T02:28:29.085Z,23.30
2023-02-17T02:31:18.233Z,23.95
2023-02-17T02:33:50.571Z,23.20
2023-02-17T02:36:21.118Z,23.40
2023-02-17T02:38:54.040Z,24.52
2023-02-17T02:41:24.989Z,23.67
2023-02-17T02:43:53.618Z,23.15
2023-02-17T02:46:21.528Z,22.05
2023-02-17T02:48:52.278Z,21.98
2023-02-17T02:51:24.369Z,22.90
2023-02-17T02:54:07.350Z,20.95
2023-02-17T02:56:40.909Z,22.98
2023-02-17T02:59:13.932Z,23.25
2023-02-17T03:01:46.012Z,18.52
2023-02-17T03:04:20.017Z,20.40
2023-02-17T03:06:50.916Z,19.50
2023-02-17T03:09:20.820Z,20.48
2023-02-17T03:11:49.349Z,20.90
2023-02-17T03:14:19.209Z,20.02
2023-02-17T03:16:47.405Z,21.63
2023-02-17T03:19:17.773Z,21.20
2023-02-17T03:21:49.303Z,20.23
2023-02-17T03:24:17.920Z,20.88
2023-02-17T03:26:45.839Z,20.42
2023-02-17T03:29:16.975Z,21.27
2023-02-17T03:31:45.203Z,18.45
2023-02-17T03:34:13.657Z,21.60
2023-02-17T03:36:43.256Z,17.75
2023-02-17T03:39:11.464Z,22.33
2023-02-17T03:41:39.355Z,18.58
2023-02-17T03:44:07.624Z,21.52
2023-02-17T03:46:35.874Z,19.52
2023-02-17T03:49:04.153Z,20.08
2023-02-17T03:51:32.060Z,21.67
2023-02-17T03:54:01.647Z,21.95
2023-02-17T03:56:29.591Z,22.08
2023-02-17T03:58:57.802Z,21.98
2023-02-17T04:01:25.690Z,22.38
2023-02-17T04:03:56.845Z,22.10
2023-02-17T04:06:24.754Z,21.92
2023-02-17T04:08:53.012Z,24.58
2023-02-17T04:11:26.292Z,23.60
2023-02-17T04:13:54.667Z,21.20
2023-02-17T04:16:22.622Z,21.55
2023-02-17T04:18:50.954Z,22.90
2023-02-17T04:21:18.929Z,24.25
2023-02-17T04:23:47.083Z,24.63
2023-02-17T04:26:15.326Z,21.73
2023-02-17T04:28:45.371Z,25.48
2023-02-17T04:31:13.765Z,23.10
2023-02-17T04:33:42.056Z,24.65
2023-02-17T04:36:09.980Z,23.52
2023-02-17T04:38:38.379Z,23.42
2023-02-17T04:41:07.707Z,23.90
2023-02-17T04:46:05.623Z,24.15
2023-02-17T04:48:33.964Z,25.23
2023-02-17T04:51:01.920Z,26.75
2023-02-17T04:53:30.066Z,26.67
2023-02-17T04:55:58.098Z,25.23
2023-02-17T04:58:27.092Z,25.95
2023-02-17T05:00:55.060Z,27.48
2023-02-17T05:03:24.725Z,26.55
2023-02-17T05:05:53.413Z,27.77
2023-02-17T05:08:21.697Z,26.92
2023-02-17T05:10:51.339Z,27.10
2023-02-17T05:13:20.329Z,25.88
2023-02-17T05:15:48.304Z,24.83
2023-02-17T05:18:16.582Z,25.02
2023-02-17T05:20:46.166Z,25.88
2023-02-17T05:23:14.411Z,25.17
2023-02-17T05:25:42.729Z,23.98
2023-02-17T05:28:10.899Z,23.95
2023-02-17T05:30:38.955Z,25.17
2023-02-17T05:33:07.120Z,23.63
2023-02-17T05:35:37.335Z,23.20
2023-02-17T05:38:06.956Z,24.35
2023-02-17T05:40:35.204Z,21.98
2023-02-17T05:43:03.407Z,25.40
2023-02-17T05:45:31.361Z,24.90
2023-02-17T05:47:59.698Z,23.88
2023-02-17T05:50:27.945Z,22.25
2023-02-17T05:52:56.433Z,22.10
2023-02-17T05:55:26.029Z,21.98
2023-02-17T05:57:54.199Z,23.67
2023-02-17T06:00:22.459Z,21.17
2023-02-17T06:02:50.757Z,21.17
2023-02-17T06:05:19.230Z,23.10
2023-02-17T06:07:47.490Z,21.35
2023-02-17T06:10:15.404Z,20.42
2023-02-17T06:12:45.155Z,20.65
2023-02-17T06:17:41.191Z,19.50
2023-02-17T06:20:10.391Z,20.00
2023-02-17T06:25:07.066Z,19.42
2023-02-17T06:27:35.687Z,19.70
2023-02-17T06:30:05.367Z,20.15
2023-02-17T06:32:34.944Z,16.08
2023-02-17T06:35:02.926Z,18.30
2023-02-17T06:37:31.164Z,17.92
2023-02-17T06:39:59.631Z,18.05
2023-02-17T06:42:28.223Z,18.35
2023-02-17T06:44:56.213Z,16.90
2023-02-17T06:47:25.828Z,18.33
2023-02-17T06:49:53.968Z,17.15
2023-02-17T06:52:22.280Z,16.10
2023-02-17T06:54:50.202Z,15.18
2023-02-17T06:57:18.743Z,16.08
2023-02-17T06:59:46.692Z,17.10
2023-02-17T07:02:17.366Z,15.45
2023-02-17T07:04:46.762Z,13.60
2023-02-17T07:07:14.989Z,15.35
2023-02-17T07:09:43.288Z,14.82
2023-02-17T07:12:11.934Z,16.73
2023-02-17T07:14:39.877Z,16.00
2023-02-17T07:17:08.137Z,15.77
2023-02-17T07:19:36.445Z,16.10
2023-02-17T07:22:06.167Z,16.48
2023-02-17T07:24:35.299Z,15.25
2023-02-17T07:29:31.154Z,15.57
2023-02-17T07:31:59.685Z,14.82
2023-02-17T07:34:27.718Z,15.40
2023-02-17T07:36:55.971Z,14.05
2023-02-17T07:39:25.430Z,15.02
2023-02-17T07:42:01.027Z,15.38
2023-02-17T07:44:28.985Z,15.45
2023-02-17T07:46:57.265Z,14.63
2023-02-17T07:49:25.335Z,15.45
2023-02-17T07:51:53.623Z,15.43
2023-02-17T07:54:21.752Z,15.55
2023-02-17T07:56:51.786Z,16.48
2023-02-17T07:59:19.786Z,16.58
2023-02-17T08:01:47.986Z,16.30
2023-02-17T08:04:16.001Z,16.63
2023-02-17T08:06:44.498Z,16.40
2023-02-17T08:09:30.077Z,15.65
2023-02-17T08:12:17.718Z,16.42
2023-02-17T08:14:45.911Z,16.63
2023-02-17T08:17:14.261Z,16.73
2023-02-17T08:19:48.639Z,17.98
2023-02-17T08:22:19.512Z,17.63
2023-02-17T08:24:54.022Z,17.45
2023-02-17T08:27:24.760Z,17.25
2023-02-17T08:29:55.287Z,17.55
2023-02-17T08:32:25.612Z,17.23
2023-02-17T08:34:57.333Z,18.97
2023-02-17T08:37:26.434Z,19.02
2023-02-17T08:39:54.864Z,18.48
2023-02-17T08:42:28.428Z,17.83
2023-02-17T08:44:57.572Z,18.90
2023-02-17T08:47:29.463Z,19.65
2023-02-17T08:49:58.518Z,18.90
2023-02-17T08:52:27.056Z,18.23
2023-02-17T08:54:56.682Z,18.92
2023-02-17T08:57:30.341Z,19.05
2023-02-17T08:59:59.282Z,21.05
2023-02-17T09:02:27.937Z,17.73
2023-02-17T09:04:56.236Z,19.63
2023-02-17T09:07:24.463Z,18.13
2023-02-17T09:09:52.430Z,19.48
2023-02-17T09:12:20.622Z,20.80
2023-02-17T09:14:50.120Z,20.33
2023-02-17T09:17:18.639Z,21.23
2023-02-17T09:19:47.151Z,21.95
2023-02-17T09:22:30.803Z,18.80
2023-02-17T09:24:59.540Z,21.25
2023-02-17T09:27:27.884Z,19.25
2023-02-17T09:29:57.498Z,20.75
2023-02-17T09:32:25.851Z,21.77
2023-02-17T09:34:54.458Z,22.40
2023-02-17T09:37:24.876Z,20.67
2023-02-17T09:39:53.127Z,21.83
2023-02-17T09:42:24.268Z,23.38
2023-02-17T09:44:54.797Z,21.10
2023-02-17T09:47:26.526Z,20.65
2023-02-17T09:49:56.451Z,21.75
2023-02-17T09:52:27.296Z,20.27
2023-02-17T09:55:00.810Z,23.02
2023-02-17T09:57:30.705Z,23.08
2023-02-17T10:00:00.152Z,21.90
2023-02-17T10:02:33.452Z,21.00
2023-02-17T10:05:04.359Z,22.30
2023-02-17T10:07:36.307Z,22.80
2023-02-17T10:10:06.456Z,24.10
2023-02-17T10:12:38.728Z,22.80
2023-02-17T10:15:12.467Z,23.52
2023-02-17T10:17:47.580Z,23.85
2023-02-17T10:20:18.005Z,23.50
2023-02-17T10:22:47.491Z,23.05
2023-02-17T10:25:16.626Z,20.83
2023-02-17T10:27:47.404Z,22.85
2023-02-17T10:30:21.109Z,21.58
2023-02-17T10:32:54.530Z,22.65
2023-02-17T10:35:26.241Z,22.45
2023-02-17T10:37:58.927Z,20.63
2023-02-17T10:40:28.093Z,22.35
2023-02-17T10:45:31.544Z,19.55
2023-02-17T10:48:03.626Z,18.42
2023-02-17T10:50:31.934Z,18.60
2023-02-17T10:53:00.297Z,18.05
2023-02-17T10:55:33.612Z,17.70
2023-02-17T10:58:05.993Z,18.90
2023-02-17T11:00:34.144Z,19.55
2023-02-17T11:03:04.075Z,18.17
2023-02-17T11:05:36.192Z,18.33
2023-02-17T11:08:07.277Z,19.23
2023-02-17T11:10:37.803Z,17.17
2023-02-17T11:13:19.804Z,18.05
2023-02-17T11:15:48.619Z,17.15
2023-02-17T11:18:22.465Z,18.77
2023-02-17T11:21:00.765Z,20.10
2023-02-17T11:23:29.219Z,18.67
2023-02-17T11:26:09.720Z,14.52
2023-02-17T11:28:38.335Z,18.17
2023-02-17T11:31:07.263Z,19.20
2023-02-17T11:36:05.938Z,17.40
2023-02-17T11:38:42.714Z,17.02
2023-02-17T11:41:11.298Z,16.95
2023-02-17T11:43:40.258Z,16.98
2023-02-17T11:46:22.945Z,17.47
2023-02-17T11:49:00.589Z,17.38
2023-02-17T11:51:34.627Z,17.52
2023-02-17T11:54:08.248Z,17.38
2023-02-17T11:56:38.094Z,17.02
2023-02-17T11:59:21.270Z,17.50
2023-02-17T12:01:55.840Z,16.45
2023-02-17T12:04:26.552Z,14.25
2023-02-17T12:07:05.298Z,17.58
2023-02-17T12:09:36.529Z,13.52
2023-02-17T12:12:10.950Z,15.68
2023-02-17T12:14:50.843Z,14.77
2023-02-17T12:17:21.447Z,15.43
2023-02-17T12:19:56.533Z,13.57
2023-02-17T12:22:29.338Z,14.85
2023-02-17T12:25:05.348Z,14.43
2023-02-17T12:27:44.477Z,14.30
2023-02-17T12:32:50.196Z,12.15
2023-02-17T12:35:20.906Z,12.50
2023-02-17T12:37:53.129Z,12.25
2023-02-17T12:40:30.331Z,11.63
2023-02-17T12:43:01.561Z,10.80
2023-02-17T12:45:35.262Z,9.88
2023-02-17T12:48:06.393Z,9.00
2023-02-17T12:50:36.923Z,9.80
2023-02-17T12:53:07.881Z,10.15
2023-02-17T12:55:38.154Z,9.63
2023-02-17T12:58:08.868Z,8.52
2023-02-17T13:00:39.994Z,7.72
2023-02-17T13:03:08.616Z,8.15
2023-02-17T13:05:40.358Z,8.27
2023-02-17T13:08:11.659Z,7.47
2023-02-17T13:10:40.790Z,12.93
2023-02-17T13:13:11.690Z,13.45
2023-02-17T13:15:40.835Z,7.68
2023-02-17T13:18:13.146Z,6.32
2023-02-17T13:20:45.875Z,6.45
2023-02-17T13:23:26.763Z,7.20
2023-02-17T13:26:03.314Z,6.72
2023-02-17T13:28:37.393Z,6.55
2023-02-17T13:31:14.207Z,5.95
2023-02-17T13:33:44.303Z,5.30
2023-02-17T13:36:15.470Z,5.72
2023-02-17T13:38:57.480Z,4.95
2023-02-17T13:41:26.280Z,5.20
2023-02-17T13:43:54.330Z,5.70
2023-02-17T13:46:25.421Z,4.93
2023-02-17T13:49:00.416Z,5.10
2023-02-17T13:51:29.586Z,6.32
2023-02-17T13:54:05.509Z,5.78
2023-02-17T13:56:33.917Z,5.50
2023-02-17T13:59:08.963Z,5.72
2023-02-17T14:01:38.277Z,5.22
2023-02-17T14:04:18.156Z,6.65
2023-02-17T14:06:46.530Z,6.07
2023-02-17T14:09:19.924Z,6.15
2023-02-17T14:11:48.181Z,5.80
2023-02-17T14:14:16.324Z,5.43
2023-02-17T14:16:45.380Z,5.22
2023-02-17T14:19:14.030Z,5.10
2023-02-17T14:21:43.902Z,5.28
2023-02-17T14:24:27.040Z,5.30
2023-02-17T14:26:57.448Z,5.00
2023-02-17T14:29:25.300Z,4.63
2023-02-17T14:31:54.133Z,5.25
2023-02-17T14:34:28.966Z,3.78
2023-02-17T14:37:08.721Z,3.65
2023-02-17T14:39:38.325Z,3.00
2023-02-17T14:42:06.617Z,3.25
2023-02-17T14:44:35.691Z,3.22
2023-02-17T14:49:31.600Z,3.15
2023-02-17T14:51:59.925Z,2.75
2023-02-17T14:54:30.491Z,3.20
2023-02-17T14:57:04.057Z,2.60
2023-02-17T14:59:32.204Z,2.70
2023-02-17T15:02:00.611Z,2.60
2023-02-17T15:04:28.638Z,2.35
2023-02-17T15:06:56.859Z,2.70
2023-02-17T15:09:29.372Z,1.77
2023-02-17T15:11:57.833Z,2.10
2023-02-17T15:14:27.109Z,1.55
2023-02-17T15:16:57.378Z,1.63
2023-02-17T15:19:25.359Z,2.35
2023-02-17T15:21:53.825Z,1.70
2023-02-17T15:24:23.493Z,1.75
2023-02-17T15:26:52.202Z,1.48
2023-02-17T15:29:21.039Z,1.50
2023-02-17T15:31:51.402Z,1.75
2023-02-17T15:34:21.434Z,2.00
2023-02-17T15:36:49.845Z,1.60
2023-02-17T15:39:18.608Z,1.10
2023-02-17T15:41:47.672Z,1.08
2023-02-17T15:44:18.033Z,1.73
2023-02-17T15:46:46.998Z,1.10
2023-02-17T15:49:16.508Z,1.50
2023-02-17T15:51:45.309Z,1.30
2023-02-17T15:54:13.554Z,0.93
2023-02-17T15:56:43.638Z,1.57
2023-02-17T15:59:13.018Z,1.15
2023-02-17T16:01:41.292Z,1.17
2023-02-17T16:04:11.543Z,1.25
2023-02-17T16:06:41.568Z,1.30
2023-02-17T16:09:09.799Z,1.27
2023-02-17T16:11:41.816Z,1.02
2023-02-17T16:14:11.650Z,1.60
2023-02-17T16:16:40.111Z,1.30
2023-02-17T16:19:08.054Z,1.75
2023-02-17T16:21:36.280Z,1.50
2023-02-17T16:24:06.012Z,1.63
2023-02-17T16:26:36.647Z,1.83
2023-02-17T16:29:10.970Z,1.48
2023-02-17T16:31:39.594Z,1.58
2023-02-17T16:34:07.573Z,1.30
2023-02-17T16:36:36.684Z,1.58
2023-02-17T16:39:11.850Z,1.95
2023-02-17T16:41:40.175Z,1.20
2023-02-17T16:44:08.458Z,1.45
2023-02-17T16:46:37.639Z,1.67
2023-02-17T16:49:16.752Z,1.10
2023-02-17T16:54:14.196Z,1.00
2023-02-17T16:56:44.454Z,1.40
2023-02-17T16:59:15.878Z,1.10
2023-02-17T17:01:44.456Z,0.82
2023-02-17T17:04:12.308Z,1.15
2023-02-17T17:06:43.392Z,1.20
2023-02-17T17:09:15.742Z,1.52
2023-02-17T17:11:45.462Z,1.30
2023-02-17T17:16:42.496Z,1.80
2023-02-17T17:19:12.501Z,1.13
2023-02-17T17:21:40.687Z,0.75
2023-02-17T17:24:11.150Z,1.17
2023-02-17T17:26:40.794Z,0.88
2023-02-17T17:31:38.383Z,0.95
2023-02-17T17:36:35.598Z,0.60
2023-02-17T17:39:05.187Z,0.70
2023-02-17T17:41:33.787Z,0.90
2023-02-17T17:44:01.702Z,0.82
2023-02-17T17:46:30.712Z,1.13
2023-02-17T17:49:00.748Z,1.10
2023-02-17T17:51:29.991Z,0.90
2023-02-17T17:53:58.212Z,1.02
2023-02-17T17:56:27.380Z,0.98
2023-02-17T17:58:55.915Z,1.00
2023-02-17T18:01:24.546Z,1.00
2023-02-17T18:03:52.617Z,0.80
2023-02-17T18:06:24.020Z,1.30
2023-02-17T18:08:53.570Z,1.05
2023-02-17T18:11:23.024Z,0.95
2023-02-17T18:13:53.248Z,1.17
2023-02-17T18:16:22.597Z,1.33
2023-02-17T18:18:51.030Z,1.20
2023-02-17T18:21:19.886Z,1.00
2023-02-17T18:23:49.240Z,1.13
2023-02-17T18:26:18.607Z,1.73
2023-02-17T18:28:46.683Z,1.92
2023-02-17T18:31:16.345Z,1.33
2023-02-17T18:36:15.764Z,1.58
2023-02-17T18:38:43.764Z,1.77
2023-02-17T18:41:19.785Z,1.42
2023-02-17T18:43:48.075Z,1.90
2023-02-17T18:46:17.363Z,1.98
2023-02-17T18:48:45.968Z,1.70
2023-02-17T18:51:15.082Z,0.90
2023-02-17T18:53:43.323Z,1.48
2023-02-17T18:56:12.089Z,1.60
2023-02-17T18:58:41.725Z,1.10
2023-02-17T19:01:16.167Z,1.83
2023-02-17T19:03:44.222Z,1.67
2023-02-17T19:06:14.941Z,1.75
2023-02-17T19:08:42.920Z,1.90
2023-02-17T19:11:11.166Z,1.65
2023-02-17T19:13:39.259Z,1.80
2023-02-17T19:16:10.613Z,1.35
2023-02-17T19:18:39.053Z,1.88
2023-02-17T19:21:08.396Z,1.60
2023-02-17T19:23:37.078Z,1.40
2023-02-17T19:26:06.913Z,1.50
2023-02-17T19:28:35.487Z,2.00
2023-02-17T19:31:06.553Z,1.27
2023-02-17T19:33:36.677Z,1.65
2023-02-17T19:36:07.721Z,1.85
2023-02-17T19:38:35.885Z,2.33
2023-02-17T19:41:05.244Z,2.00
2023-02-17T19:43:33.657Z,1.75
2023-02-17T19:46:02.318Z,1.50
2023-02-17T19:48:30.341Z,2.73
2023-02-17T19:51:01.887Z,2.50
2023-02-17T19:53:30.923Z,2.38
2023-02-17T19:56:09.814Z,1.52
2023-02-17T19:58:39.366Z,1.75
2023-02-17T20:01:08.335Z,2.05
2023-02-17T20:03:41.424Z,1.52
2023-02-17T20:06:13.689Z,2.22
2023-02-17T20:08:41.931Z,2.17
2023-02-17T20:11:11.087Z,2.60
2023-02-17T20:13:45.841Z,2.17
2023-02-17T20:16:15.533Z,2.63
2023-02-17T20:18:44.786Z,2.33
2023-02-17T20:23:42.960Z,1.65
2023-02-17T20:26:12.491Z,1.85
2023-02-17T20:28:40.394Z,2.03
2023-02-17T20:31:09.161Z,2.60
2023-02-17T20:33:37.203Z,2.00
2023-02-17T20:36:06.818Z,2.73
2023-02-17T20:38:34.977Z,2.05
2023-02-17T20:41:05.265Z,2.42
2023-02-17T20:43:33.209Z,2.10
2023-02-17T20:46:01.708Z,2.58
2023-02-17T20:48:31.058Z,2.45
2023-02-17T20:51:00.470Z,1.75
2023-02-17T20:53:28.721Z,1.70
2023-02-17T20:55:59.066Z,2.50
2023-02-17T20:58:28.416Z,2.10
2023-02-17T21:00:56.799Z,2.40
2023-02-17T21:03:25.286Z,2.10
2023-02-17T21:05:53.520Z,2.63
2023-02-17T21:08:21.619Z,2.63
2023-02-17T21:10:50.208Z,2.33
2023-02-17T21:13:18.091Z,2.20
2023-02-17T21:15:48.376Z,1.48
2023-02-17T21:18:17.273Z,1.48
2023-02-17T21:20:45.520Z,2.50
2023-02-17T21:23:13.580Z,1.55
2023-02-17T21:25:41.761Z,1.88
2023-02-17T21:28:09.630Z,2.17
2023-02-17T21:30:40.599Z,1.60
2023-02-17T21:33:09.871Z,1.35
2023-02-17T21:35:40.743Z,2.00
2023-02-17T21:38:10.347Z,2.13
2023-02-17T21:40:38.887Z,1.73
2023-02-17T21:43:24.059Z,2.13
2023-02-17T21:45:52.273Z,2.10
2023-02-17T21:48:21.593Z,2.22
2023-02-17T21:50:50.504Z,2.22
2023-02-17T21:53:18.398Z,1.27
2023-02-17T21:55:47.296Z,2.95
2023-02-17T21:58:15.204Z,2.15
2023-02-17T22:00:43.508Z,2.40
2023-02-17T22:03:11.780Z,1.50
2023-02-17T22:05:43.741Z,2.03
2023-02-17T22:08:11.699Z,2.35
2023-02-17T22:10:40.226Z,2.28
2023-02-17T22:13:08.426Z,1.83
2023-02-17T22:15:39.788Z,2.33
2023-02-17T22:18:07.685Z,2.13
2023-02-17T22:20:35.913Z,1.80
2023-02-17T22:23:05.194Z,2.45
2023-02-17T22:25:33.369Z,2.15
2023-02-17T22:28:01.319Z,1.55
2023-02-17T22:30:29.537Z,1.80
2023-02-17T22:32:58.022Z,2.33
2023-02-17T22:35:26.181Z,1.65
2023-02-17T22:37:54.066Z,1.90
2023-02-17T22:40:23.810Z,2.03
2023-02-17T22:45:19.718Z,2.10
2023-02-17T22:47:47.609Z,2.30
2023-02-17T22:50:16.584Z,2.90
2023-02-17T22:52:44.527Z,2.17
2023-02-17T22:55:25.508Z,1.70
2023-02-17T22:57:54.908Z,2.55
2023-02-17T23:00:23.356Z,2.75
2023-02-17T23:02:52.286Z,2.63
2023-02-17T23:05:23.093Z,3.20
2023-02-17T23:07:54.464Z,2.38
2023-02-17T23:10:22.732Z,2.63
2023-02-17T23:12:50.624Z,2.13
2023-02-17T23:15:39.152Z,5.07
2023-02-17T23:18:07.546Z,1.23
2023-02-17T23:20:36.336Z,2.10
2023-02-17T23:23:04.417Z,2.00
2023-02-17T23:25:35.498Z,1.33
2023-02-17T23:28:06.069Z,1.70
2023-02-17T23:30:36.520Z,1.40
2023-02-17T23:33:04.545Z,1.95
2023-02-17T23:35:32.782Z,1.55
2023-02-17T23:38:00.915Z,1.17
2023-02-17T23:40:29.284Z,1.40
2023-02-17T23:42:57.419Z,1.77
2023-02-17T23:45:25.972Z,1.90
2023-02-17T23:47:55.654Z,1.77
2023-02-17T23:50:23.896Z,1.58
2023-02-17T23:52:51.934Z,1.55
2023-02-17T23:55:20.248Z,2.00
2023-02-17T23:57:48.499Z,0.93
